So Ute Indian Res, Colorado
Current Conditions -  °F | °C
As of 3:53 PM on Tuesday 21 Oct 2014 (Local Time) from KDRO Reporting Station
Overcast Overcast  
Wind Chill: 59°   Ceiling: 7000
Heat Index: 59°   Visibility: 10mi
Dew Point: 42°   Wind: 5mph
Humidity: 53%   Direction: 180°S
Pressure: 30.1"   Gusts: NA
Location:  37.0891°N, 107.649°W
Report Text: KDRO 212153Z AUTO 18004KT 10SM BKN070 OVC095 15/06 A3010 RMK AO2 SLP140 T01500056 PWINO
Loading
Personal Weather Stations






























Interactive Weather Map
Tropical Storm Tracking
New forecast layout! Learn more

10-Day Weather Forecast

Advertisements
Track Severe Weather on mobile